Flight Track Log - Related Links

Times and Time Zones

All times are in EDT time to prevent confusion due to time zone crossing. See the FDX3647 flight status page for this flight to view local times or setup timezone preferences in your user account.

Time Position Orientation Groundspeed Altitude Reporting Facility
EDT Latitude Longitude Course Direction KTS MPH feet Rate Location/Type
Sat 09:37:38 AM 37.7217 -122.2439 311° West 168 193 800  Level FlightAware ADS-B (EPLL / LCJ)
Sat 09:37:53 AM 37.7278 -122.2580 287° West 170 196 1,200 1,750 Climbing FlightAware ADS-B
Sat 09:38:02 AM 37.7300 -122.2670 287° West 169 194 1,500 1,565 Climbing FlightAware ADS-B
Sat 09:38:16 AM 37.7332 -122.2804 286° West 178 205 1,800 1,463 Climbing FlightAware ADS-B (EPLL / LCJ)
Sat 09:38:43 AM 37.7388 -122.3056 287° West 186 214 2,500 1,500 Climbing FlightAware ADS-B (EPLL / LCJ)
Sat 09:38:48 AM 37.7414 -122.3130 285° West 187 215 2,600 1,286 Climbing FlightAware ADS-B
Sat 09:38:57 AM 37.7468 -122.3210 316° Northwest 194 223 2,800 1,500 Climbing FlightAware ADS-B
Sat 09:39:00 AM 37.7491 -122.3240 323° Northwest 197 227 2,900 2,000 Climbing FlightAware ADS-B
Sat 09:39:03 AM 37.7468 -122.3214 325° Northwest 198 228 3,000 1,125 Climbing FlightAware ADS-B (EPLL / LCJ)
Sat 09:39:16 AM 37.7610 -122.3340 325° Northwest 206 237 3,200 900 Climbing FlightAware ADS-B
Sat 09:39:23 AM 37.7658 -122.3386 326° Northwest 214 246 3,300 1,091 Climbing FlightAware ADS-B (EPLL / LCJ)
Sat 09:39:38 AM 37.7777 -122.3489 326° Northwest 226 260 3,600 1,071 Climbing FlightAware ADS-B (EPLL / LCJ)
Sat 09:39:51 AM 37.7910 -122.3600 326° Northwest 239 275 3,800 1,588 Climbing FlightAware ADS-B
Sat 09:40:12 AM 37.8093 -122.3756 327° Northwest 255 293 4,500 1,560 Climbing FlightAware ADS-B (EPLL / LCJ)
Sat 09:40:41 AM 37.8396 -122.3951 347° North 269 310 5,100 1,059 Climbing FlightAware ADS-B (EPLL / LCJ)
Sat 09:40:46 AM 37.8488 -122.3968 354° North 273 314 5,100 1,286 Level FlightAware ADS-B (EDDM / MUC)
Sat 09:40:55 AM 37.8596 -122.3961 12° North 278 320 5,400 2,100 Climbing FlightAware ADS-B (EPLL / LCJ)
Sat 09:41:06 AM 37.8740 -122.3893 25° Northeast 278 320 5,800 1,875 Climbing FlightAware ADS-B (EDDM / MUC)
Sat 09:41:27 AM 37.8908 -122.3673 63° Northeast 279 321 6,400 1,902 Climbing FlightAware ADS-B (EDDM / MUC)
Sat 09:41:47 AM 37.8985 -122.3330 81° East 280 322 7,100 2,100 Climbing FlightAware ADS-B
Sat 09:42:07 AM 37.9015 -122.3019 84° East 286 329 7,800 2,057 Climbing FlightAware ADS-B (EDDM / MUC)
Sat 09:42:22 AM 37.9037 -122.2770 84° East 285 328 8,300 1,895 Climbing FlightAware ADS-B
Sat 09:42:26 AM 37.9044 -122.2684 83° East 290 334 8,400 1,800 Climbing FlightAware ADS-B (EDDM / MUC)
Sat 09:42:32 AM 37.9055 -122.2580 83° East 291 335 8,600 2,250 Climbing FlightAware ADS-B
Sat 09:42:42 AM 37.9070 -122.2446 82° East 293 337 9,000 1,895 Climbing FlightAware ADS-B (EPLL / LCJ)
Sat 09:42:51 AM 37.9091 -122.2280 82° East 294 338 9,200 2,000 Climbing FlightAware ADS-B
Sat 09:43:03 AM 37.9115 -122.2071 82° East 296 341 9,700 2,250 Climbing FlightAware ADS-B (EPLL / LCJ)
Sat 09:43:07 AM 37.9124 -122.1990 81° East 297 342 9,800 1,588 Climbing FlightAware ADS-B
Sat 09:43:37 AM 37.9195 -122.1460 80° East 315 362 10,600 1,297 Climbing FlightAware ADS-B
Sat 09:43:44 AM 37.9212 -122.1328 80° East 322 371 10,600 400 Level FlightAware ADS-B (EPLL / LCJ)
Sat 09:44:07 AM 37.9274 -122.0880 80° East 348 400 10,800 558 Climbing FlightAware ADS-B
Sat 09:44:27 AM 37.9326 -122.0492 80° East 366 421 11,000 581 Climbing FlightAware ADS-B (EDDM / MUC)
Sat 09:44:38 AM 37.9362 -122.0230 80° East 377 434 11,100 1,235 Climbing FlightAware ADS-B
Sat 09:45:01 AM 37.9429 -121.9731 80° East 379 436 11,700 1,500 Climbing FlightAware ADS-B
Sat 09:45:10 AM 37.9456 -121.9530 80° East 380 437 11,900 1,385 Climbing FlightAware ADS-B
Sat 09:45:40 AM 37.9551 -121.8860 80° East 392 451 12,600 1,548 Climbing FlightAware ADS-B
Sat 09:45:41 AM 37.9549 -121.8863 80° East 392 451 12,700 1,429 Climbing FlightAware ADS-B
Sat 09:46:22 AM 37.9686 -121.7900 80° East 405 466 13,600 1,583 Climbing FlightAware ADS-B
Sat 09:46:53 AM 37.9785 -121.7200 80° East 407 468 14,600 1,867 Climbing FlightAware ADS-B
Sat 09:47:07 AM 37.9822 -121.6913 80° East 410 472 15,000 1,548 Climbing FlightAware ADS-B (EDDM / MUC)
Sat 09:47:24 AM 37.9887 -121.6440 80° East 414 476 15,400 1,400 Climbing FlightAware ADS-B
Sat 09:47:37 AM 37.9929 -121.6149 80° East 418 481 15,700 1,313 Climbing FlightAware ADS-B
Sat 09:47:56 AM 37.9991 -121.5690 80° East 423 487 16,100 1,636 Climbing FlightAware ADS-B
Sat 09:48:10 AM 38.0038 -121.5345 80° East 427 491 16,600 1,400 Climbing FlightAware ADS-B
Sat 09:48:26 AM 38.0093 -121.4930 80° East 430 495 16,800 1,161 Climbing FlightAware ADS-B
Sat 09:48:41 AM 38.0144 -121.4551 80° East 433 498 17,200 1,500 Climbing FlightAware ADS-B
Sat 09:48:58 AM 38.0202 -121.4130 80° East 435 501 17,600 1,650 Climbing FlightAware ADS-B
Sat 09:49:21 AM 38.0278 -121.3547 80° East 435 501 18,300 1,800 Climbing FlightAware ADS-B
Sat 09:49:38 AM 38.0337 -121.3120 80° East 437 503 18,800 1,459 Climbing FlightAware ADS-B
Sat 09:49:58 AM 38.0403 -121.2637 81° East 440 506 19,200 1,371 Climbing FlightAware ADS-B
Sat 09:50:13 AM 38.0457 -121.2230 80° East 441 507 19,600 1,500 Climbing FlightAware ADS-B
Sat 09:50:38 AM 38.0531 -121.1667 81° East 446 513 20,200 1,219 Climbing FlightAware ADS-B
Sat 09:51:17 AM 38.0672 -121.0597 81° East 455 524 20,900 1,139 Climbing FlightAware ADS-B
Sat 09:51:57 AM 38.0813 -120.9537 80° East 464 534 21,700 1,111 Climbing FlightAware ADS-B
Sat 09:52:38 AM 38.0963 -120.8429 80° East 471 542 22,400 1,111 Climbing FlightAware ADS-B
Sat 09:53:18 AM 38.1112 -120.7335 80° East 476 548 23,200 1,050 Climbing FlightAware ADS-B
Sat 09:53:58 AM 38.1261 -120.6225 81° East 484 557 23,800 1,200 Climbing FlightAware ADS-B
Sat 09:54:38 AM 38.1412 -120.5080 81° East 482 555 24,800 1,125 Climbing FlightAware ADS-B
Sat 09:55:18 AM 38.1556 -120.3982 81° East 490 564 25,300 825 Climbing FlightAware ADS-B
Sat 09:55:58 AM 38.1691 -120.2954 81° East 496 571 25,900 825 Climbing FlightAware ADS-B
Sat 09:56:38 AM 38.1858 -120.1683 81° East 504 580 26,400 750 Climbing FlightAware ADS-B
Sat 09:57:18 AM 38.2008 -120.0507 81° East 510 587 26,900 825 Climbing FlightAware ADS-B
Sat 09:57:58 AM 38.2158 -119.9322 81° East 513 590 27,500 900 Climbing FlightAware ADS-B
Sat 09:58:38 AM 38.2302 -119.8189 81° East 517 595 28,100 840 Climbing FlightAware ADS-B
Sat 09:59:38 AM 38.2537 -119.6319 81° East 521 600 28,900 780 Climbing FlightAware ADS-B
Sat 10:00:18 AM 38.2686 -119.5106 81° East 523 602 29,400 675 Climbing FlightAware ADS-B
Sat 10:00:58 AM 38.2835 -119.3889 81° East 527 606 29,800 835 Climbing FlightAware ADS-B
Sat 10:01:37 AM 38.2984 -119.2666 81° East 525 604 30,500 1,026 Climbing FlightAware ADS-B
Sat 10:02:14 AM 38.3119 -119.1570 81° East 523 602 31,100 857 Climbing FlightAware ADS-B
Sat 10:03:08 AM 38.3313 -118.9927 82° East 523 602 31,800 606 Climbing FlightAware ADS-B
Sat 10:04:03 AM 38.3492 -118.8322 82° East 522 601 32,200 419 Climbing Salt Lake Center
Sat 10:04:34 AM 38.3583 -118.7578 81° East 524 603 32,400 450 Climbing Oakland Center
Sat 10:10:16 AM 38.4776 -117.6967 83° East 521 600 35,000 365 Climbing FlightAware ADS-B (EPLL / LCJ)
Sat 10:11:41 AM 38.5048 -117.4400 83° East 523 602 35,000  Level FlightAware ADS-B (EPLL / LCJ)
Sat 10:12:21 AM 38.5171 -117.3146 87° East 522 601 35,000  Level FlightAware ADS-B (EPLL / LCJ)
Sat 10:12:55 AM 38.5142 -117.2136 92° East 520 598 35,000  Level FlightAware ADS-B (EPLL / LCJ)
Sat 10:13:37 AM 38.5036 -117.0828 96° East 519 597 35,000  Level FlightAware ADS-B (EPLL / LCJ)
Sat 10:14:15 AM 38.4944 -116.9672 96° East 519 597 35,000  Level FlightAware ADS-B (EPLL / LCJ)
Sat 10:14:59 AM 38.4831 -116.8334 95° East 519 597 35,000  Level FlightAware ADS-B (EPLL / LCJ)
Sat 10:15:34 AM 38.4739 -116.7268 95° East 519 597 35,000  Level FlightAware ADS-B (EPLL / LCJ)
Sat 10:16:16 AM 38.4628 -116.5987 95° East 519 597 35,000  Level FlightAware ADS-B (EPLL / LCJ)
Sat 10:16:52 AM 38.4534 -116.4922 95° East 519 597 35,000 85 Level FlightAware ADS-B (EPLL / LCJ)
Sat 10:17:27 AM 38.4437 -116.3827 96° East 518 596 35,100  Climbing FlightAware ADS-B (EPLL / LCJ)
Sat 10:18:25 AM 38.4286 -116.2225 96° East 520 598 35,000 -50 Descending Salt Lake Center
Sat 10:19:26 AM 38.4117 -116.0408 97° East 520 598 35,000  Level Salt Lake Center
Sat 10:20:28 AM 38.3956 -115.8578 96° East 519 597 35,000  Level Salt Lake Center
Sat 10:21:30 AM 38.3764 -115.6761 98° East 519 597 35,000  Level Salt Lake Center
Sat 10:22:31 AM 38.3583 -115.4944 97° East 519 597 35,000  Level Salt Lake Center
Sat 10:23:33 AM 38.3444 -115.3089 95° East 518 596 35,000  Level Salt Lake Center
Sat 10:24:35 AM 38.3258 -115.1281 97° East 518 596 35,000  Level Salt Lake Center
Sat 10:25:37 AM 38.3036 -114.9114 97° East 517 595 35,000  Level Salt Lake Center
Sat 10:31:19 AM 38.4062 -113.9140 68° East 518 596 35,000  Level FlightAware ADS-B
Sat 10:31:51 AM 38.4384 -113.8124 68° East 518 596 35,000  Level FlightAware ADS-B
Sat 10:32:36 AM 38.4746 -113.6994 68° East 518 596 35,000  Level FlightAware ADS-B
Sat 10:33:14 AM 38.5134 -113.5778 68° East 518 596 35,000  Level FlightAware ADS-B
Sat 10:33:49 AM 38.5451 -113.4787 68° East 517 595 35,000  Level FlightAware ADS-B
Sat 10:34:34 AM 38.5847 -113.3539 68° East 517 595 35,000  Level FlightAware ADS-B
Sat 10:35:16 AM 38.6213 -113.2348 68° East 517 595 35,000  Level FlightAware ADS-B
Sat 10:35:48 AM 38.6508 -113.1413 68° East 518 596 35,000  Level FlightAware ADS-B
Sat 10:36:31 AM 38.6882 -113.0220 68° East 519 597 35,000  Level FlightAware ADS-B
Sat 10:37:04 AM 38.7179 -112.9252 68° East 519 597 35,000  Level FlightAware ADS-B
Sat 10:37:45 AM 38.7535 -112.8110 69° East 518 596 35,000  Level FlightAware ADS-B
Sat 10:38:18 AM 38.7833 -112.7139 69° East 516 594 35,000  Level FlightAware ADS-B
Sat 10:38:52 AM 38.8130 -112.6169 69° East 519 597 35,000  Level FlightAware ADS-B
Sat 10:39:24 AM 38.8414 -112.5253 69° East 520 598 35,000  Level FlightAware ADS-B
Sat 10:39:54 AM 38.8672 -112.4393 69° East 520 598 35,000  Level FlightAware ADS-B
Sat 10:40:25 AM 38.8939 -112.3532 69° East 519 597 35,000  Level FlightAware ADS-B
Sat 10:41:07 AM 38.9307 -112.2298 70° East 517 595 35,000  Level FlightAware ADS-B
Sat 10:41:51 AM 38.9666 -112.1116 69° East 520 598 35,000  Level FlightAware ADS-B
Sat 10:42:22 AM 38.9959 -112.0137 70° East 518 596 35,000  Level FlightAware ADS-B
Sat 10:43:16 AM 39.0390 -111.8559 72° East 521 600 35,000  Level FlightAware ADS-B
Sat 10:43:55 AM 39.0677 -111.7443 72° East 520 598 35,000  Level FlightAware ADS-B
Sat 10:45:13 AM 39.1276 -111.5162 72° East 519 597 35,000  Level FlightAware ADS-B
Sat 10:45:47 AM 39.1536 -111.4138 72° East 517 595 35,000  Level FlightAware ADS-B
Sat 10:46:23 AM 39.1808 -111.3088 72° East 516 594 35,000  Level FlightAware ADS-B (KGUC)
Sat 10:47:03 AM 39.2105 -111.1923 72° East 516 594 35,000  Level FlightAware ADS-B (KGUC)
Sat 10:47:43 AM 39.2402 -111.0786 72° East 515 593 35,000  Level FlightAware ADS-B (KGUC)
Sat 10:48:17 AM 39.2652 -110.9796 72° East 515 593 35,000  Level FlightAware ADS-B
Sat 10:48:55 AM 39.2940 -110.8660 72° East 514 592 35,000  Level FlightAware ADS-B
Sat 10:49:29 AM 39.3189 -110.7668 72° East 514 592 35,000  Level FlightAware ADS-B
Sat 10:50:09 AM 39.3484 -110.6506 72° East 513 590 35,000  Level FlightAware ADS-B
Sat 10:50:39 AM 39.3699 -110.5663 72° East 510 587 35,000  Level FlightAware ADS-B
Sat 10:51:14 AM 39.3951 -110.4647 72° East 511 588 35,000  Level FlightAware ADS-B (EDXW / GWT)
Sat 10:51:45 AM 39.4178 -110.3719 72° East 510 587 35,000  Level FlightAware ADS-B
Sat 10:52:28 AM 39.4487 -110.2471 72° East 510 587 35,000  Level FlightAware ADS-B (EDXW / GWT)
Sat 10:53:05 AM 39.4751 -110.1398 72° East 510 587 35,000  Level FlightAware ADS-B (KGUC)
Sat 10:53:41 AM 39.5006 -110.0352 73° East 510 587 35,000  Level FlightAware ADS-B (EDXW / GWT)
Sat 10:54:13 AM 39.5233 -109.9416 72° East 512 589 35,000  Level FlightAware ADS-B
Sat 10:54:45 AM 39.5472 -109.8486 72° East 512 589 35,000  Level FlightAware ADS-B (KGUC)
Sat 10:55:15 AM 39.5676 -109.7701 72° East 513 590 35,000  Level FlightAware ADS-B (EDXW / GWT)
Sat 10:55:45 AM 39.5922 -109.6737 72° East 514 592 35,000 91 Level FlightAware ADS-B (KGUC)
Sat 10:56:21 AM 39.6196 -109.5723 70° East 513 590 35,100 80 Climbing FlightAware ADS-B
Sat 10:57:00 AM 39.6526 -109.4570 70° East 512 589 35,100 -76 Level FlightAware ADS-B
Sat 10:57:40 AM 39.6848 -109.3424 70° East 508 585 35,000 -86 Descending FlightAware ADS-B (EDXW / GWT)
Sat 10:58:10 AM 39.7085 -109.2566 70° East 505 581 35,000  Level FlightAware ADS-B
Sat 10:58:42 AM 39.7337 -109.1654 70° East 504 580 35,000  Level FlightAware ADS-B (KGUC)
Sat 10:59:14 AM 39.7576 -109.0774 70° East 502 578 35,000  Level FlightAware ADS-B (EDXW / GWT)
Sat 10:59:44 AM 39.7821 -108.9893 70° East 502 578 35,000  Level FlightAware ADS-B (KGUC)
Sat 11:00:25 AM 39.8123 -108.8784 71° East 505 581 35,000  Level FlightAware ADS-B (KGUC)
Sat 11:01:05 AM 39.8450 -108.7581 71° East 507 583 35,000  Level FlightAware ADS-B (KGUC)
Sat 11:01:37 AM 39.8697 -108.6689 71° East 507 583 35,000  Level FlightAware ADS-B
Sat 11:02:07 AM 39.8934 -108.5801 71° East 505 581 35,000  Level FlightAware ADS-B (EDXW / GWT)
Sat 11:02:37 AM 39.9159 -108.4967 71° East 506 582 35,000  Level FlightAware ADS-B
Sat 11:03:09 AM 39.9412 -108.4019 71° East 508 585 35,000  Level FlightAware ADS-B
Sat 11:03:41 AM 39.9649 -108.3123 71° East 510 587 35,000  Level FlightAware ADS-B
Sat 11:04:25 AM 39.9997 -108.1819 71° East 508 585 35,000  Level FlightAware ADS-B (KGUC)
Sat 11:05:05 AM 40.0303 -108.0664 71° East 508 585 35,000  Level FlightAware ADS-B (KGUC)
Sat 11:05:36 AM 40.0522 -107.9826 71° East 507 583 35,000  Level FlightAware ADS-B (EDXW / GWT)
Sat 11:06:12 AM 40.0807 -107.8726 73° East 507 583 35,000  Level FlightAware ADS-B
Sat 11:06:44 AM 40.0957 -107.8080 74° East 507 583 35,000  Level FlightAware ADS-B (EDXW / GWT)
Sat 11:07:16 AM 40.1235 -107.6854 73° East 505 581 35,000  Level FlightAware ADS-B
Sat 11:07:46 AM 40.1410 -107.6094 73° East 504 580 35,000  Level FlightAware ADS-B
Sat 11:08:22 AM 40.1678 -107.4928 73° East 504 580 35,000  Level FlightAware ADS-B
Sat 11:08:58 AM 40.1913 -107.3909 74° East 503 579 35,000  Level FlightAware ADS-B
Sat 11:09:32 AM 40.2142 -107.2919 74° East 503 579 35,000  Level FlightAware ADS-B
Sat 11:09:59 AM 40.2320 -107.2133 73° East 503 579 35,000  Level FlightAware ADS-B (KGUC)
Sat 11:10:22 AM 40.2470 -107.1465 74° East 502 578 35,000  Level FlightAware ADS-B (KGUC)
Sat 11:10:59 AM 40.2689 -107.0505 74° East 501 577 35,000  Level FlightAware ADS-B (KEIK)
Sat 11:11:36 AM 40.2957 -106.9316 74° East 501 577 35,000  Level FlightAware ADS-B (EDXW / GWT)
Sat 11:12:24 AM 40.3268 -106.7919 74° East 501 577 35,000  Level FlightAware ADS-B
Sat 11:13:03 AM 40.3524 -106.6759 74° East 499 574 35,000  Level FlightAware ADS-B (KEIK)
Sat 11:13:46 AM 40.3799 -106.5512 74° East 499 574 35,000  Level FlightAware ADS-B
Sat 11:14:29 AM 40.4072 -106.4296 74° East 497 572 35,000  Level FlightAware ADS-B (KEIK)
Sat 11:15:09 AM 40.4312 -106.3193 74° East 496 571 35,000  Level FlightAware ADS-B (KEIK)
Sat 11:15:52 AM 40.4594 -106.1895 74° East 496 571 35,000  Level FlightAware ADS-B (KEIK)
Sat 11:16:33 AM 40.4837 -106.0764 75° East 497 572 35,000  Level FlightAware ADS-B (KEIK)
Sat 11:17:06 AM 40.5025 -105.9833 80° East 497 572 35,000  Level FlightAware ADS-B
Sat 11:17:41 AM 40.5184 -105.8707 80° East 497 572 35,000  Level FlightAware ADS-B
Sat 11:18:14 AM 40.5315 -105.7787 79° East 499 574 35,000  Level FlightAware ADS-B (KEIK)
Sat 11:18:45 AM 40.5456 -105.6802 80° East 501 577 35,000  Level FlightAware ADS-B
Sat 11:19:26 AM 40.5630 -105.5544 80° East 502 578 35,000 81 Level FlightAware ADS-B
Sat 11:19:59 AM 40.5768 -105.4555 80° East 502 578 35,100 94 Climbing FlightAware ADS-B (KEIK)
Sat 11:20:30 AM 40.5892 -105.3656 80° East 502 578 35,100 -80 Level FlightAware ADS-B
Sat 11:21:14 AM 40.6078 -105.2300 80° East 504 580 35,000  Descending FlightAware ADS-B
Sat 11:21:51 AM 40.6228 -105.1219 80° East 502 578 35,100  Climbing FlightAware ADS-B (KEIK)
Sat 11:22:31 AM 40.6387 -105.0019 80° East 500 575 35,000 -73 Descending FlightAware ADS-B (KEIK)
Sat 11:23:13 AM 40.6550 -104.8796 80° East 499 574 35,000  Level FlightAware ADS-B (KEIK)
Sat 11:23:56 AM 40.6727 -104.7455 80° East 498 573 35,000  Level FlightAware ADS-B
Sat 11:24:37 AM 40.6884 -104.6259 80° East 500 575 35,000  Level FlightAware ADS-B
Sat 11:25:22 AM 40.7063 -104.4881 80° East 499 574 35,000  Level FlightAware ADS-B (KEIK)
Sat 11:26:06 AM 40.7233 -104.3565 80° East 500 575 35,000  Level FlightAware ADS-B (KEIK)
Sat 11:26:46 AM 40.7384 -104.2392 81° East 501 577 35,000  Level FlightAware ADS-B (KEIK)
Sat 11:27:28 AM 40.7546 -104.1100 81° East 501 577 35,000  Level FlightAware ADS-B
Sat 11:28:02 AM 40.7658 -104.0195 81° East 502 578 35,000  Level FlightAware ADS-B (KEIK)
Sat 11:28:41 AM 40.7816 -103.8930 81° East 501 577 35,000  Level FlightAware ADS-B (KEIK)
Sat 11:29:18 AM 40.7960 -103.7787 81° East 501 577 35,000  Level FlightAware ADS-B
Sat 11:29:56 AM 40.8090 -103.6703 81° East 499 574 35,000  Level FlightAware ADS-B (KEIK)
Sat 11:30:37 AM 40.8247 -103.5410 81° East 501 577 35,000  Level FlightAware ADS-B (KEIK)
Sat 11:31:21 AM 40.8404 -103.4109 81° East 502 578 35,000  Level FlightAware ADS-B
Sat 11:32:01 AM 40.8550 -103.2899 81° East 504 580 35,000  Level FlightAware ADS-B
Sat 11:32:33 AM 40.8665 -103.1926 81° East 505 581 35,000  Level FlightAware ADS-B (KEIK)
Sat 11:33:09 AM 40.8791 -103.0833 81° East 505 581 35,000  Level FlightAware ADS-B (KEIK)
Sat 11:33:42 AM 40.8898 -102.9919 81° East 506 582 35,000  Level FlightAware ADS-B
Sat 11:34:34 AM 40.9095 -102.8209 82° East 506 582 35,000  Level FlightAware ADS-B (KEIK)
Sat 11:35:14 AM 40.9232 -102.7019 82° East 506 582 35,000 77 Level FlightAware ADS-B
Sat 11:35:52 AM 40.9360 -102.5855 82° East 506 582 35,100  Climbing FlightAware ADS-B
Sat 11:36:41 AM 40.9529 -102.4329 82° East 506 582 35,000 -67 Descending FlightAware ADS-B
Sat 11:37:21 AM 40.9659 -102.3165 82° East 506 582 35,000  Level FlightAware ADS-B
Sat 11:38:23 AM 40.9871 -102.1209 82° East 506 582 35,000  Level FlightAware ADS-B (KEIK)
Sat 11:38:57 AM 40.9979 -102.0199 82° East 506 582 35,000  Level FlightAware ADS-B (KEIK)
Sat 11:40:05 AM 41.0261 -101.8151 79° East 490 564 35,000  Level FlightAware ADS-B (KEIK)
Sat 11:40:43 AM 41.0364 -101.7111 89° East 492 566 35,000  Level FlightAware ADS-B (KEIK)
Sat 11:41:26 AM 41.0439 -101.5704 82° East 491 565 35,000  Level FlightAware ADS-B (KEIK)
Sat 11:42:06 AM 41.0532 -101.4781 83° East 491 565 35,000  Level FlightAware ADS-B (KEIK)
Sat 11:42:49 AM 41.0619 -101.3827 83° East 496 571 35,000  Level FlightAware ADS-B (KEIK)
Sat 11:43:27 AM 41.0776 -101.2081 83° East 500 575 35,000  Level FlightAware ADS-B (KEIK)
Sat 11:44:38 AM 41.0962 -101.0064 83° East 505 581 35,000  Level FlightAware ADS-B (KEIK)
Sat 11:45:11 AM 41.1065 -100.8899 83° East 505 581 35,000  Level FlightAware ADS-B (KEIK)
Sat 11:46:45 AM 41.1308 -100.6177 83° East 503 579 35,000  Level FlightAware ADS-B (KEIK)
Sat 11:47:59 AM 41.1492 -100.4042 83° East 503 579 35,000  Level Minneapolis Center
Sat 11:49:01 AM 41.1647 -100.2189 84° East 503 579 35,000  Level Minneapolis Center
Sat 11:50:03 AM 41.1811 -100.0339 83° East 503 579 35,000  Level Minneapolis Center
Sat 11:51:05 AM 41.1989 -99.8122 84° East 503 579 35,000  Level Minneapolis Center
Sat 11:52:14 AM 41.2167 -99.6000 84° East 502 578 35,000  Level Denver Center
Sat 11:53:16 AM 41.2294 -99.4228 84° East 503 579 35,000  Level Denver Center
Sat 11:54:18 AM 41.2442 -99.2219 84° East 502 578 35,000  Level Denver Center
Sat 11:55:14 AM 41.2572 -99.0656 84° East 502 578 35,000  Level Minneapolis Center
Sat 11:56:16 AM 41.2722 -98.8831 84° East 501 577 35,000  Level Minneapolis Center
Sat 11:57:19 AM 41.2864 -98.6964 84° East 503 579 35,000  Level Minneapolis Center
Sat 11:58:21 AM 41.2967 -98.5153 86° East 499 574 35,000  Level Minneapolis Center
Sat 11:59:23 AM 41.3114 -98.2925 85° East 497 572 35,000  Level Minneapolis Center
Sat 12:00:25 PM 41.3236 -98.1103 85° East 497 572 35,000  Level Minneapolis Center
Sat 12:01:27 PM 41.3347 -97.9331 85° East 496 571 35,000  Level Minneapolis Center
Sat 12:02:29 PM 41.3461 -97.7528 85° East 492 566 35,000  Level Minneapolis Center
Sat 12:03:32 PM 41.3575 -97.5706 85° East 491 565 35,000  Level Minneapolis Center
Sat 12:04:34 PM 41.3681 -97.3925 85° East 486 559 35,000  Level Minneapolis Center
Sat 12:09:13 PM 41.4166 -96.5128 86° East 489 563 35,000  Level FlightAware ADS-B
Sat 12:09:43 PM 41.4213 -96.4227 86° East 489 563 35,000  Level FlightAware ADS-B
Sat 12:10:15 PM 41.4260 -96.3299 86° East 488 562 35,000  Level FlightAware ADS-B
Sat 12:10:50 PM 41.4313 -96.2223 86° East 487 560 35,000  Level FlightAware ADS-B
Sat 12:10:56 PM 41.4321 -96.2042 86° East 486 559 35,000  Level FlightAware ADS-B
Sat 12:11:20 PM 41.4357 -96.1329 86° East 485 558 35,000  Level FlightAware ADS-B
Sat 12:11:50 PM 41.4399 -96.0438 86° East 483 556 35,000  Level FlightAware ADS-B
Sat 12:12:22 PM 41.4443 -95.9489 86° East 482 555 35,000  Level FlightAware ADS-B
Sat 12:12:53 PM 41.4485 -95.8574 87° East 481 554 35,000  Level FlightAware ADS-B
Sat 12:13:15 PM 41.4495 -95.8369 87° East 481 554 35,000  Level FlightAware ADS-B
Sat 12:13:24 PM 41.4527 -95.7688 87° East 481 554 35,000  Level FlightAware ADS-B
Sat 12:13:54 PM 41.4566 -95.6803 87° East 482 555 35,000  Level FlightAware ADS-B
Sat 12:14:24 PM 41.4607 -95.5884 87° East 484 557 35,000  Level FlightAware ADS-B
Sat 12:14:54 PM 41.4645 -95.4992 87° East 485 558 35,000  Level FlightAware ADS-B
Sat 12:14:58 PM 41.4649 -95.4900 87° East 485 558 35,000  Level FlightAware ADS-B
Sat 12:15:28 PM 41.4687 -95.3978 87° East 485 558 35,000  Level FlightAware ADS-B
Sat 12:16:19 PM 41.4733 -95.2876 87° East 486 559 35,000  Level FlightAware ADS-B
Sat 12:16:40 PM 41.4775 -95.1831 87° East 485 558 35,000  Level FlightAware ADS-B
Sat 12:17:00 PM 41.4797 -95.1262 87° East 486 559 35,000  Level FlightAware ADS-B
Sat 12:17:12 PM 41.4812 -95.0876 87° East 486 559 35,000 150 Level FlightAware ADS-B
Sat 12:17:40 PM 41.4840 -95.0188 87° East 486 559 35,100 91 Climbing FlightAware ADS-B
Sat 12:18:18 PM 41.4888 -94.8934 87° East 485 558 35,100 -75 Level FlightAware ADS-B
Sat 12:19:00 PM 41.4934 -94.7688 87° East 481 554 35,000 -74 Descending FlightAware ADS-B
Sat 12:19:39 PM 41.4973 -94.6570 88° East 478 550 35,000  Level FlightAware ADS-B
Sat 12:20:20 PM 41.5016 -94.5339 88° East 478 550 35,000  Level FlightAware ADS-B
Sat 12:20:59 PM 41.5055 -94.4189 88° East 481 554 35,000  Level FlightAware ADS-B
Sat 12:21:39 PM 41.5095 -94.3000 88° East 485 558 35,000  Level FlightAware ADS-B
Sat 12:22:18 PM 41.5132 -94.1835 88° East 488 562 35,000  Level FlightAware ADS-B
Sat 12:22:57 PM 41.5168 -94.0665 88° East 485 558 35,000  Level FlightAware ADS-B
Sat 12:23:40 PM 41.5206 -93.9380 88° East 485 558 35,000  Level FlightAware ADS-B
Sat 12:24:17 PM 41.5237 -93.8280 88° East 482 555 35,000  Level FlightAware ADS-B
Sat 12:25:01 PM 41.5273 -93.6972 88° East 483 556 35,000  Level FlightAware ADS-B
Sat 12:26:02 PM 41.5320 -93.5159 88° East 484 557 35,000  Level FlightAware ADS-B
Sat 12:26:41 PM 41.5350 -93.3969 88° East 485 558 35,000  Level FlightAware ADS-B
Sat 12:28:00 PM 41.5333 -93.1630 101° East 487 560 35,000  Level FlightAware ADS-B
Sat 12:28:37 PM 41.5185 -93.0812 104° East 488 562 35,000  Level FlightAware ADS-B
Sat 12:29:21 PM 41.4905 -92.9323 104° East 489 563 35,000  Level FlightAware ADS-B
Sat 12:29:53 PM 41.4714 -92.8301 104° East 490 564 35,000  Level FlightAware ADS-B
Sat 12:30:23 PM 41.4765 -92.8563 104° East 490 564 35,000  Level FlightAware ADS-B
Sat 12:31:11 PM 41.4281 -92.6025 105° East 487 560 35,000  Level FlightAware ADS-B
Sat 12:32:06 PM 41.3975 -92.4466 104° East 484 557 35,000  Level FlightAware ADS-B
Sat 12:33:09 PM 41.3626 -92.2631 104° East 481 554 35,000 16 Level FlightAware ADS-B
Sat 12:38:15 PM 41.1863 -91.3838 105° East 480 552 35,100  Climbing FlightAware ADS-B
Sat 12:39:14 PM 41.1554 -91.2313 105° East 494 568 35,000 -59 Descending FlightAware ADS-B
Sat 12:39:57 PM 41.1251 -91.0853 105° East 493 567 35,000  Level FlightAware ADS-B
Sat 12:43:11 PM 41.0096 -90.5338 106° East 503 579 35,000 24 Level FlightAware ADS-B
Sat 12:44:07 PM 40.9704 -90.3497 106° East 506 582 35,100 53 Climbing FlightAware ADS-B
Sat 12:45:05 PM 40.9431 -90.2215 106° East 508 585 35,100 -59 Level FlightAware ADS-B
Sat 12:45:48 PM 40.9047 -90.0451 106° East 511 588 35,000 -41 Descending FlightAware ADS-B
Sat 12:47:30 PM 40.8378 -89.7390 106° East 513 590 35,000  Level FlightAware ADS-B
Sat 12:48:35 PM 40.7975 -89.5588 106° East 514 592 35,000  Level FlightAware ADS-B
Sat 12:49:12 PM 40.7738 -89.4537 106° East 513 590 35,000  Level FlightAware ADS-B
Sat 12:50:20 PM 40.7243 -89.2300 106° East 512 589 35,000  Level FlightAware ADS-B
Sat 12:51:12 PM 40.6894 -89.0784 107° East 509 586 35,000 -54 Level FlightAware ADS-B
Sat 12:52:12 PM 40.6501 -88.9039 107° East 509 586 34,900 -117 Descending FlightAware ADS-B
Sat 12:52:55 PM 40.6411 -88.8655 107° East 511 588 34,800 -1,682 Descending FlightAware ADS-B
Sat 12:53:59 PM 40.5753 -88.5837 107° East 511 588 31,900 -2,944 Descending FlightAware ADS-B
Sat 12:54:43 PM 40.5533 -88.4868 106° East 488 562 29,500 -3,097 Descending FlightAware ADS-B
Sat 12:56:03 PM 40.4952 -88.2393 108° East 439 505 25,500 -3,088 Descending FlightAware ADS-B
Sat 12:56:59 PM 40.4606 -88.0956 107° East 450 518 22,500 -2,053 Descending FlightAware ADS-B
Sat 12:59:13 PM 40.3842 -87.7750 107° East 440 506 19,000 -1,071 Descending Indianapolis Center
Sat 01:00:15 PM 40.3486 -87.6233 107° East 438 504 19,000 -435 Level Indianapolis Center
Sat 01:01:31 PM 40.2983 -87.4136 107° East 437 503 18,000 -734 Descending Chicago Center
Sat 01:02:34 PM 40.2611 -87.2667 108° East 431 496 17,300 -677 Descending Chicago Center
Sat 01:03:35 PM 40.2244 -87.1181 108° East 429 494 16,600 -1,317 Descending Chicago Center
Sat 01:04:37 PM 40.1889 -86.9731 108° East 424 488 14,600 -1,824 Descending Chicago Center
Sat 01:05:40 PM 40.1400 -86.8397 116° Southeast 414 476 12,800 -1,541 Descending Chicago Center
Sat 01:06:26 PM 40.0786 -86.7519 132° Southeast 408 470 11,800 -1,009 Descending Indianapolis Center
Sat 01:07:27 PM 40.0078 -86.6458 131° Southeast 395 455 11,000 -683 Descending Indianapolis Center
Sat 01:08:29 PM 39.9469 -86.5586 132° Southeast 337 388 10,400 -1,306 Descending Indianapolis Center
Sat 01:09:31 PM 39.8808 -86.4619 132° Southeast 307 353 8,300 -2,081 Descending Indianapolis Center
Sat 01:10:33 PM 39.8675 -86.3639 100° East 293 337 6,100 -2,049 Descending Indianapolis Center
Sat 01:11:34 PM 39.8833 -86.2603 79° East 292 336 4,100 -1,024 Descending Indianapolis Center
Sat 01:12:36 PM 39.8639 -86.1806 108° East 265 305 4,000 -435 Descending Indianapolis Center
Sat 01:13:38 PM 39.8150 -86.1819 181° South 208 239 3,200 -774 Descending Indianapolis Center
Sat 01:14:40 PM 39.7861 -86.2192 225° Southwest 168 193 2,400 -726 Descending Indianapolis Center
Sat 01:15:42 PM 39.7592 -86.2536 225° Southwest 149 171 1,700 -677 Descending Indianapolis Center

Login

Don't have an account? Register now (free) for customized features, flight alerts, and more!